Time;durP1;ratioP1;P1;durP2;ratioP2;P2;SDS_P1;SDS_P2;PMS_P1;PMS_P2;Temp;Humidity;BMP_temperature;BMP_pressure;BME280_temperature;BME280_humidity;BME280_pressure;Samples;Min_cycle;Max_cycle;Signal;HPM_P1;HPM_P2
2021/11/26 00:00:57;;;;;;;6.57;0.90;;;;;;;7.22;77.37;100866.13;5031297;28;20137;-76
2021/11/26 00:03:22;;;;;;;4.25;1.02;;;;;;;7.24;77.38;100856.69;5041553;28;20032;-74
2021/11/26 00:05:48;;;;;;;4.43;1.20;;;;;;;7.27;77.20;100854.16;5039015;28;20554;-75
2021/11/26 00:08:13;;;;;;;5.90;1.40;;;;;;;7.32;77.31;100849.97;5046379;28;20113;-75
2021/11/26 00:10:38;;;;;;;3.55;1.00;;;;;;;7.42;77.40;100845.03;5049733;28;20448;-75
2021/11/26 00:13:08;;;;;;;5.93;1.35;;;;;;;7.46;77.06;100836.47;5047504;28;20050;-74
2021/11/26 00:15:39;;;;;;;5.45;1.25;;;;;;;7.47;77.33;100827.84;5038721;28;20035;-74
2021/11/26 00:18:11;;;;;;;7.80;1.50;;;;;;;7.49;77.21;100823.59;5023644;28;20363;-74
2021/11/26 00:20:38;;;;;;;8.23;1.33;;;;;;;7.53;77.30;100822.81;5045365;28;20040;-75
2021/11/26 00:23:04;;;;;;;8.80;1.25;;;;;;;7.53;77.07;100809.84;5051813;28;20066;-75
2021/11/26 00:25:30;;;;;;;8.65;1.30;;;;;;;7.49;76.74;100813.22;5047856;28;20405;-75
2021/11/26 00:27:55;;;;;;;6.57;1.13;;;;;;;7.43;77.09;100807.88;5043679;28;20458;-74
2021/11/26 00:30:20;;;;;;;9.20;1.30;;;;;;;7.37;76.75;100803.44;5043115;28;20039;-75
2021/11/26 00:32:46;;;;;;;6.85;1.20;;;;;;;7.27;76.94;100802.28;5045824;28;20555;-75
2021/11/26 00:35:11;;;;;;;6.82;1.20;;;;;;;7.24;76.57;100807.41;5031117;28;20050;-75
2021/11/26 00:37:37;;;;;;;4.38;1.23;;;;;;;7.21;76.97;100799.53;5018294;28;20134;-75
2021/11/26 00:40:04;;;;;;;5.05;1.10;;;;;;;7.22;76.90;100788.34;5031348;28;20066;-75
2021/11/26 00:42:29;;;;;;;6.15;1.10;;;;;;;7.33;76.88;100796.38;5046215;28;20083;-74
2021/11/26 00:44:55;;;;;;;6.47;1.20;;;;;;;7.33;77.03;100794.66;5052911;28;20103;-76
2021/11/26 00:47:21;;;;;;;7.20;1.25;;;;;;;7.42;77.42;100799.22;5045210;28;20095;-74
2021/11/26 00:49:47;;;;;;;6.57;1.20;;;;;;;7.47;77.19;100799.31;5018400;28;20195;-74
2021/11/26 00:52:12;;;;;;;8.10;1.48;;;;;;;7.62;76.89;100800.56;5044793;28;20419;-74
2021/11/26 00:54:37;;;;;;;4.80;0.95;;;;;;;7.66;76.77;100792.03;5045095;28;20375;-75
2021/11/26 00:57:07;;;;;;;9.35;1.30;;;;;;;7.73;76.15;100783.56;5053600;28;20039;-74
2021/11/26 00:59:33;;;;;;;7.72;0.80;;;;;;;7.67;76.35;100770.44;5024032;28;20063;-74
2021/11/26 01:01:58;;;;;;;6.07;0.80;;;;;;;7.66;75.31;100762.63;5038337;28;20375;-74
2021/11/26 01:04:24;;;;;;;5.95;0.82;;;;;;;7.65;75.65;100763.44;5044684;28;20047;-74
2021/11/26 01:06:49;;;;;;;6.55;0.85;;;;;;;7.64;75.83;100761.69;5035743;28;20135;-75
2021/11/26 01:09:14;;;;;;;4.78;0.80;;;;;;;7.61;75.70;100759.91;5048366;28;20492;-74
2021/11/26 01:11:40;;;;;;;7.82;1.15;;;;;;;7.61;76.27;100757.31;5041887;28;20448;-72
2021/11/26 01:14:05;;;;;;;8.85;1.60;;;;;;;7.60;76.62;100750.38;5051647;28;20131;-76
2021/11/26 01:16:32;;;;;;;7.53;1.00;;;;;;;7.53;76.07;100737.22;5036177;28;20406;-76
2021/11/26 01:18:57;;;;;;;8.82;1.00;;;;;;;7.45;76.28;100734.44;5045865;28;20048;-74
2021/11/26 01:21:23;;;;;;;7.93;0.82;;;;;;;7.36;76.01;100734.22;5043148;28;20771;-76
2021/11/26 01:23:48;;;;;;;6.70;1.00;;;;;;;7.31;76.24;100734.13;5039375;28;20971;-74
2021/11/26 01:26:14;;;;;;;6.43;0.80;;;;;;;7.27;76.76;100728.81;5050592;28;20726;-75
2021/11/26 01:28:39;;;;;;;8.25;0.88;;;;;;;7.28;77.17;100717.59;5039478;28;20075;-74
2021/11/26 01:31:04;;;;;;;6.95;0.82;;;;;;;7.29;77.12;100712.47;5039152;28;20553;-74
2021/11/26 01:33:30;;;;;;;8.27;0.95;;;;;;;7.34;77.13;100709.97;5043200;28;20059;-74
2021/11/26 01:35:56;;;;;;;7.78;0.90;;;;;;;7.33;77.04;100708.22;5013430;28;20079;-74
2021/11/26 01:38:22;;;;;;;4.75;1.00;;;;;;;7.34;77.13;100702.19;5052637;28;20496;-75
2021/11/26 01:40:48;;;;;;;6.78;0.95;;;;;;;7.33;77.30;100706.50;5030078;28;20174;-75
2021/11/26 01:43:16;;;;;;;5.88;1.10;;;;;;;7.36;77.36;100694.47;5034039;28;20046;-74
2021/11/26 01:45:47;;;;;;;8.60;1.42;;;;;;;7.36;77.25;100695.34;5018387;28;20036;-74
2021/11/26 01:48:14;;;;;;;6.07;1.25;;;;;;;7.38;77.42;100706.59;5040843;28;20535;-74
2021/11/26 01:50:39;;;;;;;6.57;1.13;;;;;;;7.39;77.47;100704.88;5041947;28;20043;-73
2021/11/26 01:53:05;;;;;;;5.03;0.88;;;;;;;7.47;77.49;100705.94;5031096;28;20028;-74
2021/11/26 01:55:31;;;;;;;6.22;0.93;;;;;;;7.52;77.15;100701.75;5050530;28;20414;-75
2021/11/26 01:57:56;;;;;;;7.15;1.20;;;;;;;7.47;77.03;100698.16;5039295;28;20571;-74
2021/11/26 02:00:27;;;;;;;7.03;0.90;;;;;;;7.50;76.97;100680.09;5054775;28;20075;-75
2021/11/26 02:02:52;;;;;;;10.57;1.00;;;;;;;7.57;76.65;100681.97;5019754;28;20353;-75
2021/11/26 02:05:18;;;;;;;9.75;0.93;;;;;;;7.50;76.39;100686.13;5053518;28;20077;-75
2021/11/26 02:07:43;;;;;;;4.80;0.77;;;;;;;7.32;75.96;100681.41;5040097;28;20108;-75
2021/11/26 02:10:09;;;;;;;4.72;0.80;;;;;;;7.38;75.59;100678.06;5043928;28;20163;-75
2021/11/26 02:12:34;;;;;;;5.75;0.95;;;;;;;7.36;75.45;100663.34;5052683;28;20099;-75
2021/11/26 02:14:59;;;;;;;6.00;0.85;;;;;;;7.32;75.36;100652.88;5046199;28;20371;-75
2021/11/26 02:17:26;;;;;;;5.47;1.05;;;;;;;7.41;75.60;100641.84;5049436;28;20044;-75
2021/11/26 02:19:53;;;;;;;6.68;1.10;;;;;;;7.40;75.35;100642.69;5038209;28;20443;-75
2021/11/26 02:22:18;;;;;;;5.88;0.90;;;;;;;7.36;75.04;100630.50;5031112;28;20036;-75
2021/11/26 02:24:44;;;;;;;6.80;0.90;;;;;;;7.39;75.24;100624.50;5047962;28;20054;-75
2021/11/26 02:27:09;;;;;;;9.73;1.05;;;;;;;7.33;75.00;100617.44;5052298;28;20063;-74
2021/11/26 02:29:35;;;;;;;5.72;1.10;;;;;;;7.29;75.23;100597.50;5046683;28;20131;-75
2021/11/26 02:32:00;;;;;;;7.57;1.30;;;;;;;7.19;75.53;100591.25;5035443;28;20549;-76
2021/11/26 02:34:26;;;;;;;7.13;1.13;;;;;;;7.08;75.44;100584.91;5043993;28;20117;-75
2021/11/26 02:36:51;;;;;;;10.60;1.30;;;;;;;6.99;75.37;100581.25;5049170;28;20036;-75
2021/11/26 02:39:17;;;;;;;4.95;1.00;;;;;;;6.86;75.57;100567.13;5047563;28;20539;-75
2021/11/26 02:41:43;;;;;;;9.25;1.13;;;;;;;6.74;75.75;100566.84;5043258;28;20497;-74
2021/11/26 02:44:10;;;;;;;5.70;0.95;;;;;;;6.66;75.92;100565.78;5049875;28;20059;-75
2021/11/26 02:46:36;;;;;;;8.98;0.90;;;;;;;6.59;76.32;100556.97;5034424;28;20043;-75
2021/11/26 02:49:02;;;;;;;4.65;1.00;;;;;;;6.56;76.35;100556.03;5041257;28;20072;-75
2021/11/26 02:51:28;;;;;;;5.85;1.08;;;;;;;6.57;76.57;100547.44;5035038;28;20051;-75
2021/11/26 02:53:54;;;;;;;5.07;1.08;;;;;;;6.57;76.79;100548.31;5021353;28;20508;-76
2021/11/26 02:56:19;;;;;;;10.13;1.20;;;;;;;6.58;77.04;100534.53;5045295;28;20130;-74
2021/11/26 02:58:45;;;;;;;7.13;1.38;;;;;;;6.59;76.99;100540.59;5047293;28;20063;-75
2021/11/26 03:01:10;;;;;;;7.15;1.10;;;;;;;6.55;77.42;100530.97;5049836;28;20063;-74
2021/11/26 03:03:42;;;;;;;6.93;1.02;;;;;;;6.53;77.09;100529.22;5028662;28;20041;-75
2021/11/26 03:06:10;;;;;;;5.57;1.27;;;;;;;6.48;76.64;100525.66;5044290;28;20040;-74
2021/11/26 03:08:36;;;;;;;10.65;1.50;;;;;;;6.45;76.76;100516.94;5030625;28;20052;-75
2021/11/26 03:11:03;;;;;;;8.93;1.40;;;;;;;6.39;76.55;100516.78;5045434;28;20133;-75
2021/11/26 03:13:29;;;;;;;6.70;1.50;;;;;;;6.34;76.71;100508.91;5026405;28;20405;-74
2021/11/26 03:15:54;;;;;;;7.43;1.50;;;;;;;6.31;76.36;100507.94;5025371;28;20058;-74
2021/11/26 03:18:20;;;;;;;5.68;1.17;;;;;;;6.28;76.52;100498.38;5047869;28;20128;-74
2021/11/26 03:20:51;;;;;;;6.57;1.42;;;;;;;6.25;76.13;100493.16;5019101;28;20086;-75
2021/11/26 03:23:18;;;;;;;8.60;1.30;;;;;;;6.20;76.15;100487.00;5028015;28;20044;-75
2021/11/26 03:25:44;;;;;;;9.43;1.60;;;;;;;6.18;76.37;100480.00;5037826;28;20051;-74
2021/11/26 03:28:10;;;;;;;8.35;1.50;;;;;;;6.17;76.47;100473.97;5027402;28;20412;-75
2021/11/26 03:30:36;;;;;;;8.65;1.42;;;;;;;6.16;76.98;100464.44;5049745;28;20520;-75
2021/11/26 03:33:02;;;;;;;9.85;1.95;;;;;;;6.17;76.87;100458.44;5036759;28;20349;-75
2021/11/26 03:35:27;;;;;;;9.13;1.58;;;;;;;6.23;77.20;100452.53;5011804;28;20047;-75
2021/11/26 03:37:53;;;;;;;9.05;1.75;;;;;;;6.23;76.58;100444.75;5039672;28;20039;-75
2021/11/26 03:40:19;;;;;;;9.52;1.85;;;;;;;6.26;76.70;100439.66;5029224;28;20081;-74
2021/11/26 03:42:45;;;;;;;13.05;1.75;;;;;;;6.28;76.73;100432.81;5046177;28;20040;-74
2021/11/26 03:45:11;;;;;;;8.23;1.90;;;;;;;6.35;76.69;100435.56;5045565;28;20044;-74
2021/11/26 03:47:37;;;;;;;8.73;1.70;;;;;;;6.38;76.65;100433.06;5041232;28;20051;-74
2021/11/26 03:50:04;;;;;;;14.20;1.88;;;;;;;6.42;76.49;100429.69;5043722;28;20040;-76
2021/11/26 03:52:30;;;;;;;12.73;2.10;;;;;;;6.53;75.96;100426.50;5025992;28;20069;-75
2021/11/26 03:54:55;;;;;;;7.88;1.80;;;;;;;6.51;75.42;100424.75;5052295;28;20404;-76
2021/11/26 03:57:20;;;;;;;10.35;1.85;;;;;;;6.54;75.31;100416.16;5048565;28;20536;-75
2021/11/26 03:59:46;;;;;;;8.73;1.90;;;;;;;6.59;74.68;100419.72;5024462;28;20722;-74
2021/11/26 04:02:12;;;;;;;6.50;1.50;;;;;;;6.62;74.90;100408.56;5049696;28;20052;-75
2021/11/26 04:04:37;;;;;;;5.95;1.70;;;;;;;6.59;75.06;100400.72;5046533;28;20105;-74
2021/11/26 04:07:03;;;;;;;10.20;1.70;;;;;;;6.59;74.83;100395.56;5054038;28;20044;-74
2021/11/26 04:09:28;;;;;;;10.95;1.80;;;;;;;6.60;74.48;100400.75;5049357;28;20044;-74
2021/11/26 04:11:54;;;;;;;10.38;1.77;;;;;;;6.61;73.63;100389.53;5035711;28;20074;-75
2021/11/26 04:14:19;;;;;;;9.38;1.70;;;;;;;6.61;73.93;100384.38;5040775;28;20744;-75
2021/11/26 04:16:46;;;;;;;10.80;1.70;;;;;;;6.55;74.30;100378.19;5027893;28;20051;-74
2021/11/26 04:19:12;;;;;;;9.07;1.65;;;;;;;6.59;73.87;100375.69;5053215;28;20032;-74
2021/11/26 04:21:38;;;;;;;11.60;1.60;;;;;;;6.54;73.39;100374.72;5042380;28;20139;-74
2021/11/26 04:24:04;;;;;;;11.65;1.92;;;;;;;6.57;73.22;100369.63;5020329;28;20504;-74
2021/11/26 04:26:30;;;;;;;13.48;1.65;;;;;;;6.55;72.76;100358.34;5049421;28;20119;-74
2021/11/26 04:28:55;;;;;;;8.75;1.52;;;;;;;6.53;71.84;100354.81;5044378;28;20113;-75
2021/11/26 04:31:21;;;;;;;6.43;1.50;;;;;;;6.48;71.67;100344.38;5051939;28;20807;-74
2021/11/26 04:33:47;;;;;;;10.77;1.70;;;;;;;6.49;71.83;100346.13;5035105;28;20044;-74
2021/11/26 04:36:13;;;;;;;8.80;1.88;;;;;;;6.42;71.20;100338.19;5051669;28;20047;-77
2021/11/26 04:38:38;;;;;;;14.13;1.85;;;;;;;6.42;69.98;100327.84;5047822;28;20537;-75
2021/11/26 04:41:04;;;;;;;9.57;1.50;;;;;;;6.47;70.10;100321.91;5049189;28;20101;-74
2021/11/26 04:43:29;;;;;;;7.10;1.42;;;;;;;6.47;68.58;100324.50;5045911;28;20487;-74
2021/11/26 04:45:55;;;;;;;8.48;1.48;;;;;;;6.48;68.27;100300.38;5035995;28;21100;-75
2021/11/26 04:48:21;;;;;;;7.15;1.25;;;;;;;6.50;67.90;100300.41;5025205;28;20036;-75
2021/11/26 04:50:48;;;;;;;9.90;1.70;;;;;;;6.56;67.67;100294.47;5046186;28;20056;-74
2021/11/26 04:53:14;;;;;;;11.18;1.65;;;;;;;6.58;66.71;100290.22;5051363;28;20046;-75
2021/11/26 04:55:40;;;;;;;7.80;1.50;;;;;;;6.57;67.91;100285.88;5043448;28;20423;-75
2021/11/26 04:58:05;;;;;;;8.43;1.50;;;;;;;6.58;67.32;100280.72;5043639;28;20044;-75
2021/11/26 05:00:31;;;;;;;8.32;1.90;;;;;;;6.62;66.84;100271.28;5021193;28;20039;-75
2021/11/26 05:02:56;;;;;;;13.32;1.80;;;;;;;6.63;66.33;100267.84;5028879;28;20043;-74
2021/11/26 05:05:22;;;;;;;10.90;1.80;;;;;;;6.64;66.78;100274.78;5040587;28;20238;-75
2021/11/26 05:07:48;;;;;;;10.70;1.80;;;;;;;6.73;65.97;100262.88;5033291;28;20056;-74
2021/11/26 05:10:14;;;;;;;10.07;1.90;;;;;;;6.69;65.90;100248.13;5045972;28;20261;-75
2021/11/26 05:12:46;;;;;;;7.93;1.75;;;;;;;6.64;66.15;100247.16;5027646;28;20040;-74
2021/11/26 05:15:11;;;;;;;10.13;1.80;;;;;;;6.65;66.13;100246.31;5042890;28;20055;-75
2021/11/26 05:17:37;;;;;;;12.68;2.05;;;;;;;6.66;66.67;100236.81;5036992;28;20370;-74
2021/11/26 05:20:03;;;;;;;10.40;2.13;;;;;;;6.63;66.05;100227.28;5041336;28;20043;-74
2021/11/26 05:22:29;;;;;;;9.82;1.70;;;;;;;6.58;65.39;100218.56;5020746;28;20036;-74
2021/11/26 05:24:54;;;;;;;14.00;1.70;;;;;;;6.56;67.13;100209.88;5046457;28;20132;-76
2021/11/26 05:27:19;;;;;;;7.75;1.80;;;;;;;6.50;67.46;100208.06;5058369;28;20128;-76
2021/11/26 05:29:45;;;;;;;7.65;1.58;;;;;;;6.48;68.17;100195.91;5037783;28;20036;-74
2021/11/26 05:32:11;;;;;;;10.55;1.98;;;;;;;6.41;68.68;100189.75;5046608;28;20538;-74
2021/11/26 05:34:37;;;;;;;15.90;2.00;;;;;;;6.39;68.13;100180.22;5030843;28;20940;-74
2021/11/26 05:37:02;;;;;;;9.63;1.65;;;;;;;6.42;68.18;100175.09;5031811;28;20844;-74
2021/11/26 05:39:28;;;;;;;9.75;1.73;;;;;;;6.36;67.85;100168.06;5032381;28;20046;-75
2021/11/26 05:41:53;;;;;;;4.53;1.55;;;;;;;6.36;68.79;100167.19;5016473;28;20592;-75
2021/11/26 05:44:19;;;;;;;9.18;1.70;;;;;;;6.32;69.20;100157.63;5057987;28;20097;-75
2021/11/26 05:46:44;;;;;;;6.03;1.50;;;;;;;6.26;69.64;100149.75;5047587;28;20048;-75
2021/11/26 05:49:09;;;;;;;9.32;1.50;;;;;;;6.25;69.48;100143.72;5025800;28;20492;-74
2021/11/26 05:51:36;;;;;;;7.82;1.80;;;;;;;6.24;69.82;100139.38;5046837;28;20044;-74
2021/11/26 05:54:01;;;;;;;11.23;1.60;;;;;;;6.24;69.64;100138.50;5043206;28;20166;-75
2021/11/26 05:56:26;;;;;;;6.28;1.90;;;;;;;6.24;68.13;100131.59;5051213;28;20664;-74
2021/11/26 05:58:52;;;;;;;9.90;1.75;;;;;;;6.24;67.48;100129.00;5032921;28;20127;-74
2021/11/26 06:01:17;;;;;;;6.35;1.30;;;;;;;6.25;68.11;100125.59;5053217;28;20107;-75
2021/11/26 06:03:43;;;;;;;8.73;1.63;;;;;;;6.33;67.22;100123.16;5034142;28;20046;-75
2021/11/26 06:06:08;;;;;;;4.93;1.50;;;;;;;6.31;67.11;100112.75;5051756;28;20078;-76
2021/11/26 06:08:34;;;;;;;8.02;1.65;;;;;;;6.30;67.32;100107.53;5034025;28;20426;-75
2021/11/26 06:10:59;;;;;;;8.10;1.45;;;;;;;6.32;67.65;100093.81;5050456;28;20677;-75
2021/11/26 06:13:25;;;;;;;9.25;1.48;;;;;;;6.29;66.36;100098.03;5047354;28;21285;-75
2021/11/26 06:15:50;;;;;;;8.77;1.27;;;;;;;6.36;66.43;100089.53;5041299;28;20076;-76
2021/11/26 06:18:15;;;;;;;10.00;1.80;;;;;;;6.42;66.11;100081.88;5048052;28;20465;-74
2021/11/26 06:20:41;;;;;;;8.93;1.60;;;;;;;6.37;65.61;100075.75;5043728;28;20115;-76
2021/11/26 06:23:10;;;;;;;9.10;1.45;;;;;;;6.40;66.29;100074.06;5023200;28;20050;-75
2021/11/26 06:25:36;;;;;;;9.55;1.70;;;;;;;6.41;66.99;100070.66;5050661;28;20036;-76
2021/11/26 06:28:01;;;;;;;6.65;1.50;;;;;;;6.39;66.66;100064.59;5042723;28;20063;-76
2021/11/26 06:30:27;;;;;;;9.05;1.67;;;;;;;6.41;67.16;100059.41;5030098;28;20474;-73
2021/11/26 06:32:53;;;;;;;10.68;1.50;;;;;;;6.47;67.39;100054.34;5040095;28;20104;-75
2021/11/26 06:35:20;;;;;;;7.32;1.60;;;;;;;6.43;67.60;100050.84;5050335;28;20043;-74
2021/11/26 06:37:47;;;;;;;4.75;1.33;;;;;;;6.44;67.30;100037.06;5042036;28;20063;-74
2021/11/26 06:40:12;;;;;;;6.75;1.38;;;;;;;6.47;66.93;100029.31;5015872;28;20182;-75
2021/11/26 06:42:38;;;;;;;8.38;1.50;;;;;;;6.43;66.58;100022.38;5032569;28;20043;-75
2021/11/26 06:45:05;;;;;;;8.60;1.60;;;;;;;6.47;66.48;100012.91;5048436;28;20218;-74
2021/11/26 06:47:30;;;;;;;7.03;1.50;;;;;;;6.50;66.54;100013.84;5047986;28;20149;-74
2021/11/26 06:49:56;;;;;;;8.70;1.67;;;;;;;6.55;66.59;100013.03;5045930;28;20473;-74
2021/11/26 06:52:21;;;;;;;9.48;1.38;;;;;;;6.54;66.52;100007.00;5050481;28;20202;-75
2021/11/26 06:54:47;;;;;;;4.40;1.30;;;;;;;6.57;67.26;100007.06;5057191;28;20100;-75
2021/11/26 06:57:12;;;;;;;7.32;1.60;;;;;;;6.63;67.38;100003.69;5007360;28;20404;-75
2021/11/26 06:59:38;;;;;;;8.02;1.80;;;;;;;6.64;67.92;99993.34;5048153;28;20036;-75
2021/11/26 07:02:05;;;;;;;8.10;1.70;;;;;;;6.67;67.39;99989.91;5044038;28;20130;-76
2021/11/26 07:04:30;;;;;;;8.88;1.63;;;;;;;6.72;67.41;99977.91;5052539;28;20128;-75
2021/11/26 07:06:55;;;;;;;5.55;1.80;;;;;;;6.72;67.20;99973.59;5047767;28;20063;-76
2021/11/26 07:09:21;;;;;;;11.55;1.65;;;;;;;6.69;66.95;99963.22;5052425;28;20416;-75
2021/11/26 07:11:46;;;;;;;9.27;1.75;;;;;;;6.72;66.39;99955.47;5021326;28;20036;-76
2021/11/26 07:14:12;;;;;;;8.32;1.80;;;;;;;6.70;67.08;99951.13;5050733;28;20440;-76
2021/11/26 07:16:38;;;;;;;7.50;1.50;;;;;;;6.74;67.34;99942.53;5043979;28;20543;-75
2021/11/26 07:19:03;;;;;;;9.30;1.70;;;;;;;6.75;66.56;99921.84;5035180;28;20034;-75
2021/11/26 07:21:29;;;;;;;9.88;1.80;;;;;;;6.75;66.78;99923.56;5054214;28;20122;-76
2021/11/26 07:23:55;;;;;;;13.68;1.75;;;;;;;6.76;65.94;99917.53;5024917;28;20542;-75
2021/11/26 07:26:21;;;;;;;10.05;1.77;;;;;;;6.79;66.13;99914.97;5040551;28;20036;-75
2021/11/26 07:28:47;;;;;;;10.18;1.60;;;;;;;6.82;66.17;99918.50;5051882;28;20055;-76
2021/11/26 07:31:13;;;;;;;9.60;1.83;;;;;;;6.82;65.60;99905.53;5029355;28;20044;-75
2021/11/26 07:33:38;;;;;;;15.88;2.38;;;;;;;6.87;65.65;99903.88;5043260;28;20148;-74
2021/11/26 07:36:06;;;;;;;9.65;1.92;;;;;;;6.98;65.09;99901.41;5041894;28;20063;-75
2021/11/26 07:38:33;;;;;;;9.68;1.83;;;;;;;6.97;64.81;99898.78;5038841;28;20032;-75
2021/11/26 07:40:58;;;;;;;6.55;1.90;;;;;;;7.09;66.20;99896.34;5027805;28;20504;-75
2021/11/26 07:43:23;;;;;;;7.50;1.85;;;;;;;7.12;64.99;99893.81;5045327;28;20737;-76
2021/11/26 07:45:49;;;;;;;6.78;1.75;;;;;;;7.19;64.76;99886.13;5033875;28;20623;-75
2021/11/26 07:48:14;;;;;;;9.30;2.17;;;;;;;7.25;65.58;99872.34;5044517;28;20404;-75
2021/11/26 07:50:40;;;;;;;7.40;1.70;;;;;;;7.29;65.19;99868.94;5051424;28;20040;-75
2021/11/26 07:53:05;;;;;;;10.57;1.75;;;;;;;7.32;65.67;99856.84;5046079;28;20580;-75
2021/11/26 07:55:33;;;;;;;5.75;1.80;;;;;;;7.36;65.59;99846.53;5045520;28;20832;-75
2021/11/26 07:57:59;;;;;;;12.35;2.10;;;;;;;7.37;66.19;99843.97;5022042;28;22819;-73
2021/11/26 08:00:24;;;;;;;9.60;1.95;;;;;;;7.44;65.87;99842.31;5048208;28;20044;-75
2021/11/26 08:02:49;;;;;;;9.48;2.50;;;;;;;7.45;64.99;99838.81;5051402;28;20036;-75
2021/11/26 08:05:15;;;;;;;6.95;1.90;;;;;;;7.52;64.31;99827.66;5052841;28;20057;-75
2021/11/26 08:07:41;;;;;;;9.00;2.20;;;;;;;7.63;65.13;99821.69;5042370;28;20508;-74
2021/11/26 08:10:10;;;;;;;8.27;2.08;;;;;;;7.66;65.33;99818.28;5040750;28;20048;-75
2021/11/26 08:12:40;;;;;;;9.65;1.80;;;;;;;7.65;64.75;99808.75;5032456;28;20040;-75
2021/11/26 08:15:06;;;;;;;11.95;2.00;;;;;;;7.61;65.81;99802.69;5042423;28;20515;-75
2021/11/26 08:17:32;;;;;;;10.73;2.00;;;;;;;7.73;65.71;99801.91;5043536;28;20403;-74
2021/11/26 08:19:57;;;;;;;7.68;1.70;;;;;;;7.70;66.24;99792.38;5035829;28;21092;-75
2021/11/26 08:22:23;;;;;;;9.68;1.90;;;;;;;7.68;66.75;99791.47;5044235;28;20204;-74
2021/11/26 08:24:48;;;;;;;10.38;1.95;;;;;;;7.61;66.56;99783.66;5045187;28;20042;-74
2021/11/26 08:27:13;;;;;;;11.48;2.00;;;;;;;7.77;66.06;99779.44;5040306;28;20029;-75
2021/11/26 08:29:39;;;;;;;12.18;1.70;;;;;;;7.79;67.46;99772.53;5026651;28;20082;-74
2021/11/26 08:32:05;;;;;;;8.05;1.70;;;;;;;7.64;67.78;99778.47;5037963;28;20039;-74
2021/11/26 08:34:30;;;;;;;8.80;2.08;;;;;;;7.63;67.60;99777.59;5032721;28;20756;-74
2021/11/26 08:36:56;;;;;;;9.50;1.98;;;;;;;7.53;69.26;99767.16;5024204;28;20056;-74
2021/11/26 08:39:21;;;;;;;11.02;2.15;;;;;;;7.64;68.24;99757.72;5048680;28;20032;-74
2021/11/26 08:41:46;;;;;;;7.18;1.67;;;;;;;7.56;69.08;99754.22;5040038;28;20573;-74
2021/11/26 08:44:12;;;;;;;11.07;1.83;;;;;;;7.59;68.62;99744.72;5051624;28;20146;-74
2021/11/26 08:46:37;;;;;;;8.35;1.80;;;;;;;7.48;68.00;99736.00;5043688;28;20040;-75
2021/11/26 08:49:03;;;;;;;4.47;1.48;;;;;;;7.44;68.75;99733.41;5045515;28;20585;-75
2021/11/26 08:51:34;;;;;;;8.65;1.50;;;;;;;7.47;67.76;99723.91;5045514;28;20039;-75
2021/11/26 08:54:01;;;;;;;9.15;1.98;;;;;;;7.56;67.31;99726.53;5038012;28;21068;-75
2021/11/26 08:56:26;;;;;;;6.70;1.65;;;;;;;7.56;67.84;99713.56;5039912;28;20075;-75
2021/11/26 08:58:52;;;;;;;6.95;1.63;;;;;;;7.62;67.67;99717.97;5033289;28;20691;-75
2021/11/26 09:01:18;;;;;;;6.93;1.73;;;;;;;7.68;67.47;99705.88;5041990;28;20130;-75
2021/11/26 09:03:49;;;;;;;8.75;1.70;;;;;;;7.78;67.21;99695.56;5039714;28;20404;-74
2021/11/26 09:06:16;;;;;;;7.35;1.95;;;;;;;7.78;67.61;99688.66;5036501;28;20048;-75
2021/11/26 09:08:41;;;;;;;11.10;2.28;;;;;;;7.86;67.55;99688.69;5047091;28;20040;-76
2021/11/26 09:11:07;;;;;;;8.10;2.10;;;;;;;7.81;67.63;99677.44;5048264;28;20044;-76
2021/11/26 09:13:32;;;;;;;12.43;2.40;;;;;;;7.70;68.59;99667.84;5050448;28;20769;-74
2021/11/26 09:15:57;;;;;;;10.43;2.58;;;;;;;7.87;68.12;99662.75;5018342;28;20048;-76
2021/11/26 09:18:23;;;;;;;9.93;2.40;;;;;;;7.88;67.84;99666.19;5031704;28;20043;-74
2021/11/26 09:20:50;;;;;;;14.98;2.95;;;;;;;7.84;67.35;99654.94;5044973;28;20041;-76
2021/11/26 09:23:17;;;;;;;10.23;2.67;;;;;;;7.86;66.89;99645.47;5047599;28;20040;-76
2021/11/26 09:25:42;;;;;;;8.65;2.80;;;;;;;7.93;67.28;99636.81;5041768;28;20040;-76
2021/11/26 09:28:07;;;;;;;11.30;2.80;;;;;;;7.84;67.88;99636.78;5047346;28;20330;-76
2021/11/26 09:30:33;;;;;;;11.48;3.05;;;;;;;7.87;67.37;99630.75;5051886;28;20028;-78
2021/11/26 09:32:59;;;;;;;11.60;2.88;;;;;;;8.01;67.14;99632.53;5042425;28;20520;-76
2021/11/26 09:35:28;;;;;;;9.20;2.95;;;;;;;8.07;66.11;99634.28;5048542;28;20493;-76
2021/11/26 09:37:54;;;;;;;11.13;2.88;;;;;;;8.12;66.71;99617.84;5028122;28;20044;-75
2021/11/26 09:40:20;;;;;;;9.70;2.80;;;;;;;8.02;67.15;99620.44;5047525;28;20060;-77
2021/11/26 09:42:46;;;;;;;9.52;2.55;;;;;;;8.10;66.63;99611.81;5033323;28;20171;-75
2021/11/26 09:45:17;;;;;;;10.95;2.83;;;;;;;8.13;66.79;99601.44;5033408;28;20052;-75
2021/11/26 09:47:42;;;;;;;13.85;2.75;;;;;;;8.14;67.29;99585.00;5044017;28;20521;-74
2021/11/26 09:50:08;;;;;;;8.00;2.50;;;;;;;8.28;67.00;99590.22;5045184;28;20139;-76
2021/11/26 09:52:41;;;;;;;7.47;2.50;;;;;;;8.37;66.96;99576.41;5030322;28;20047;-75
2021/11/26 09:55:08;;;;;;;8.73;2.83;;;;;;;8.29;67.52;99575.50;5019236;28;20050;-75
2021/11/26 09:57:34;;;;;;;5.68;1.98;;;;;;;8.41;67.18;99557.38;5050809;28;20036;-75
2021/11/26 09:59:59;;;;;;;10.30;2.53;;;;;;;8.49;66.68;99550.44;5041822;28;20044;-75
2021/11/26 10:02:25;;;;;;;11.45;3.47;;;;;;;8.41;67.35;99539.22;5046494;28;20043;-74
2021/11/26 10:05:01;;;;;;;6.03;2.05;;;;;;;8.59;66.24;99540.94;5052641;28;20136;-74
2021/11/26 10:07:27;;;;;;;7.72;1.98;;;;;;;8.61;65.42;99531.41;5038806;28;20044;-76
2021/11/26 10:09:54;;;;;;;10.30;1.75;;;;;;;8.60;65.26;99527.09;5008148;28;20188;-75
2021/11/26 10:12:20;;;;;;;6.07;1.83;;;;;;;8.66;64.86;99521.91;5028290;28;20037;-76
2021/11/26 10:14:46;;;;;;;6.50;1.95;;;;;;;8.57;64.75;99508.91;5041979;28;20063;-75
2021/11/26 10:17:20;;;;;;;6.15;1.90;;;;;;;8.52;65.49;99495.91;5047789;28;20097;-75
2021/11/26 10:19:57;;;;;;;7.18;2.10;;;;;;;8.40;65.39;99490.72;5042995;28;20054;-75
2021/11/26 10:22:28;;;;;;;11.50;2.05;;;;;;;8.51;65.06;99479.47;5022607;28;20101;-75
2021/11/26 10:25:12;;;;;;;8.77;2.38;;;;;;;8.47;65.59;99472.56;5050744;28;20675;-76
2021/11/26 10:27:42;;;;;;;9.43;2.22;;;;;;;8.37;65.42;99459.56;5039306;28;20051;-73
2021/11/26 10:30:19;;;;;;;8.05;2.10;;;;;;;8.42;65.10;99452.63;5043486;28;20262;-76
2021/11/26 10:33:04;;;;;;;8.48;2.38;;;;;;;8.59;65.05;99445.69;5037554;28;20050;-76
2021/11/26 10:35:40;;;;;;;12.85;2.65;;;;;;;8.43;64.11;99426.66;5045967;28;20036;-75
2021/11/26 10:38:10;;;;;;;7.80;2.28;;;;;;;8.35;65.91;99414.56;5046009;28;20051;-74
2021/11/26 10:40:38;;;;;;;6.82;2.30;;;;;;;8.43;64.75;99399.81;5020571;28;20396;-76
2021/11/26 10:43:07;;;;;;;14.43;2.70;;;;;;;8.36;65.00;99396.38;5044345;28;20036;-76
2021/11/26 10:59:29;;;;;;;10.80;2.72;;;;;;;8.48;65.15;99341.81;5029015;28;20040;-74
2021/11/26 11:01:56;;;;;;;12.05;3.17;;;;;;;8.48;66.48;99328.81;5040662;28;20066;-74
2021/11/26 11:04:24;;;;;;;10.77;3.10;;;;;;;8.60;65.45;99314.09;5017383;28;20134;-74
2021/11/26 11:07:05;;;;;;;11.30;3.25;;;;;;;8.39;65.43;99295.09;5023497;28;20039;-75
2021/11/26 11:09:48;;;;;;;11.77;3.47;;;;;;;8.39;65.77;99299.44;5016084;28;20048;-76
2021/11/26 11:12:14;;;;;;;10.10;2.97;;;;;;;8.31;65.77;99285.59;5029266;28;20051;-75
2021/11/26 11:14:40;;;;;;;15.32;3.40;;;;;;;8.43;65.35;99278.63;5031888;28;20032;-74
2021/11/26 11:17:06;;;;;;;12.07;3.42;;;;;;;8.28;65.64;99260.50;5044055;28;20044;-75
2021/11/26 11:19:33;;;;;;;10.68;3.30;;;;;;;8.26;66.17;99257.03;5036727;28;20888;-76
2021/11/26 11:21:59;;;;;;;19.98;3.50;;;;;;;8.25;66.21;99241.44;5033192;28;20569;-76
2021/11/26 11:24:26;;;;;;;9.80;2.90;;;;;;;8.18;66.42;99239.72;5051396;28;21163;-74
2021/11/26 11:26:51;;;;;;;10.32;3.30;;;;;;;8.18;66.99;99227.63;5033979;28;20031;-75
2021/11/26 11:29:25;;;;;;;10.00;3.65;;;;;;;8.17;66.56;99225.06;5046476;28;20044;-75
2021/11/26 11:31:52;;;;;;;13.00;4.20;;;;;;;8.04;67.50;99208.66;5038438;28;20042;-75
2021/11/26 11:34:23;;;;;;;10.00;3.60;;;;;;;8.00;67.62;99209.50;5044581;28;20144;-75
2021/11/26 11:36:51;;;;;;;14.48;4.20;;;;;;;8.03;67.39;99189.63;5032737;28;20090;-75
2021/11/26 11:39:17;;;;;;;15.52;4.03;;;;;;;8.05;67.90;99185.25;5041897;28;20040;-75
2021/11/26 11:41:48;;;;;;;16.00;4.43;;;;;;;8.10;68.11;99193.06;5033065;28;20067;-74
2021/11/26 11:44:29;;;;;;;15.57;4.65;;;;;;;7.89;67.52;99175.81;5023443;28;20562;-75